Time;durP1;ratioP1;P1;durP2;ratioP2;P2;SDS_P1;SDS_P2;PMS_P1;PMS_P2;Temp;Humidity;BMP_temperature;BMP_pressure;BME280_temperature;BME280_humidity;BME280_pressure;Samples;Min_cycle;Max_cycle;Signal;HPM_P1;HPM_P2
2021/07/21 02:45:40;;;;;;;13.95;6.97;;;17.30;71.10;;;;;;5527035;24;20104;-76
2021/07/21 02:48:10;;;;;;;11.85;7.22;;;17.30;71.30;;;;;;4710305;30;20271;-76
2021/07/21 02:50:38;;;;;;;10.38;7.25;;;17.30;71.70;;;;;;4728721;30;20078;-75
2021/07/21 02:53:11;;;;;;;10.45;6.68;;;17.30;71.90;;;;;;4729421;30;20040;-75
2021/07/21 02:56:04;;;;;;;10.55;6.50;;;17.30;71.70;;;;;;4731773;30;20075;-76
2021/07/21 02:58:34;;;;;;;;;;;17.30;71.80;;;;;;4729645;30;20354;-76
2021/07/21 03:01:02;;;;;;;12.17;7.23;;;17.30;71.90;;;;;;4729197;30;19911;-75
2021/07/21 03:03:35;;;;;;;11.60;7.75;;;17.30;71.90;;;;;;4715261;30;20098;-76
2021/07/21 03:06:07;;;;;;;12.45;7.70;;;17.30;72.20;;;;;;4744944;30;20035;-75
2021/07/21 03:08:58;;;;;;;11.23;7.13;;;17.30;72.50;;;;;;4740795;30;20043;-75
2021/07/21 03:11:55;;;;;;;11.68;7.03;;;17.20;72.40;;;;;;4722554;30;20319;-75
2021/07/21 03:14:24;;;;;;;10.00;7.05;;;17.20;72.50;;;;;;4714972;30;20066;-76
2021/07/21 03:16:59;;;;;;;12.70;6.88;;;17.20;72.60;;;;;;4731759;30;20060;-75
2021/07/21 03:19:39;;;;;;;11.45;7.15;;;17.20;72.60;;;;;;4724835;30;20190;-76
2021/07/21 03:22:09;;;;;;;13.07;7.18;;;17.20;72.70;;;;;;4729043;30;20041;-76
2021/07/21 03:24:49;;;;;;;10.57;7.43;;;17.20;73.10;;;;;;4744753;30;20201;-76
2021/07/21 03:27:25;;;;;;;10.23;6.53;;;17.20;73.00;;;;;;4729989;30;20091;-75
2021/07/21 03:30:24;;;;;;;15.73;7.32;;;17.20;73.00;;;;;;4676357;30;20121;-75
2021/07/21 03:33:09;;;;;;;13.32;6.65;;;17.20;73.20;;;;;;4676127;30;20033;-75
2021/07/21 03:35:42;;;;;;;12.52;7.50;;;17.20;73.20;;;;;;4676555;30;20245;-75
2021/07/21 03:38:08;;;;;;;11.80;7.68;;;17.20;73.40;;;;;;4689933;30;20345;-75
2021/07/21 03:40:41;;;;;;;16.20;7.35;;;17.20;73.40;;;;;;4676252;30;20037;-75
2021/07/21 03:43:17;;;;;;;14.52;7.57;;;17.20;73.50;;;;;;4690400;30;20360;-76
2021/07/21 03:45:59;;;;;;;11.93;6.88;;;17.30;73.50;;;;;;4690613;30;20054;-75
2021/07/21 03:48:28;;;;;;;12.25;7.10;;;17.30;73.40;;;;;;4676059;30;20042;-75
2021/07/21 03:51:20;;;;;;;13.57;7.72;;;17.30;73.30;;;;;;4687795;30;20127;-78
2021/07/21 03:54:12;;;;;;;14.32;7.22;;;17.30;73.20;;;;;;4672707;30;20034;-75
2021/07/21 03:56:50;;;;;;;12.15;7.30;;;17.40;73.00;;;;;;4651966;30;20078;-75
2021/07/21 03:59:18;;;;;;;12.70;7.50;;;17.40;73.20;;;;;;4669654;30;20077;-76
2021/07/21 04:01:48;;;;;;;15.35;7.88;;;17.40;73.10;;;;;;4664580;30;20057;-76
2021/07/21 04:04:20;;;;;;;11.15;7.50;;;17.50;73.00;;;;;;4644351;30;20050;-76
2021/07/21 04:06:48;;;;;;;10.73;7.22;;;17.50;72.90;;;;;;4682868;30;20121;-76
2021/07/21 04:09:25;;;;;;;13.20;7.60;;;17.50;73.10;;;;;;4687522;30;20243;-76
2021/07/21 04:11:57;;;;;;;14.60;7.57;;;17.60;72.80;;;;;;4675279;30;20037;-76
2021/07/21 04:14:34;;;;;;;15.30;7.45;;;17.60;72.80;;;;;;4693002;30;20076;-76
2021/07/21 04:17:29;;;;;;;11.63;7.03;;;17.70;72.70;;;;;;4653493;30;20047;-77
2021/07/21 04:19:56;;;;;;;13.82;7.38;;;17.70;72.20;;;;;;4631083;30;20063;-76
2021/07/21 04:22:24;;;;;;;15.00;7.32;;;17.80;72.10;;;;;;4634276;30;20043;-77
2021/07/21 04:24:54;;;;;;;10.68;7.38;;;17.90;72.20;;;;;;4648738;30;20067;-76
2021/07/21 04:27:21;;;;;;;13.48;8.38;;;17.90;72.00;;;;;;4633342;30;20047;-77
2021/07/21 04:30:01;;;;;;;18.80;8.80;;;18.00;72.10;;;;;;4637944;30;20414;-76
2021/07/21 04:32:28;;;;;;;16.50;7.75;;;18.10;71.80;;;;;;4674175;30;20105;-76
2021/07/21 04:34:55;;;;;;;13.38;8.05;;;18.10;71.70;;;;;;4675574;30;20061;-76
2021/07/21 04:37:23;;;;;;;9.55;6.43;;;18.10;71.50;;;;;;4687591;30;20100;-76
2021/07/21 04:39:59;;;;;;;19.73;7.70;;;18.20;71.50;;;;;;4662605;30;20026;-76
2021/07/21 04:42:44;;;;;;;19.23;8.45;;;18.20;71.30;;;;;;4691430;30;20084;-76
2021/07/21 04:45:14;;;;;;;15.63;7.78;;;18.30;71.30;;;;;;4675166;30;20214;-76
2021/07/21 04:47:42;;;;;;;12.43;7.35;;;18.20;71.20;;;;;;4674194;30;20053;-76
2021/07/21 04:50:10;;;;;;;12.55;7.20;;;18.40;71.10;;;;;;4678620;30;20030;-77
2021/07/21 04:52:38;;;;;;;11.00;7.03;;;18.40;71.00;;;;;;4678880;30;20033;-76
2021/07/21 04:55:05;;;;;;;;;;;18.40;70.70;;;;;;4721953;30;20308;-76
2021/07/21 04:57:31;;;;;;;12.07;7.93;;;18.50;70.80;;;;;;4746993;30;20145;-76
2021/07/21 05:00:10;;;;;;;14.35;8.30;;;18.60;70.70;;;;;;4718101;30;20060;-77
2021/07/21 05:03:06;;;;;;;13.68;8.18;;;18.70;70.50;;;;;;4732786;30;20032;-76
2021/07/21 05:05:37;;;;;;;14.35;6.93;;;18.70;70.00;;;;;;4716505;30;20098;-76
2021/07/21 05:08:05;;;;;;;13.48;7.28;;;18.80;69.90;;;;;;4730950;30;20104;-77
2021/07/21 05:10:36;;;;;;;11.07;7.43;;;18.80;69.70;;;;;;4730912;30;20024;-77
2021/07/21 05:13:02;;;;;;;14.85;8.05;;;19.00;69.80;;;;;;4716728;30;20024;-77
2021/07/21 05:15:33;;;;;;;16.55;7.82;;;19.10;70.20;;;;;;4716615;30;20040;-77
2021/07/21 05:18:13;;;;;;;12.13;7.20;;;19.10;69.20;;;;;;4731952;30;20056;-76
2021/07/21 05:20:51;;;;;;;18.75;7.85;;;19.20;69.30;;;;;;4741898;30;20070;-76
2021/07/21 05:23:19;;;;;;;13.93;7.90;;;19.30;69.20;;;;;;4730778;30;20063;-77
2021/07/21 05:26:03;;;;;;;11.32;7.32;;;19.40;68.80;;;;;;4718007;30;20419;-77
2021/07/21 05:29:02;;;;;;;11.60;7.40;;;19.40;68.60;;;;;;4702803;30;20068;-77
2021/07/21 05:31:47;;;;;;;12.77;6.55;;;19.50;68.20;;;;;;4692363;30;20153;-76
2021/07/21 05:34:25;;;;;;;19.13;7.22;;;19.60;68.20;;;;;;4693864;30;20195;-78
2021/07/21 05:37:03;;;;;;;14.35;7.85;;;19.70;67.80;;;;;;4694916;30;20046;-77
2021/07/21 05:39:42;;;;;;;17.55;7.07;;;19.70;67.60;;;;;;4705886;30;20038;-77
2021/07/21 05:42:08;;;;;;;11.45;8.25;;;19.90;67.00;;;;;;4707497;30;20038;-78
2021/07/21 05:44:39;;;;;;;14.63;7.40;;;20.40;65.60;;;;;;4707233;30;20045;-79
2021/07/21 05:47:07;;;;;;;15.77;7.88;;;21.00;63.60;;;;;;4707260;30;20073;-78
2021/07/21 05:49:34;;;;;;;17.98;7.45;;;21.60;61.80;;;;;;4693126;30;20105;-79
2021/07/21 05:52:08;;;;;;;14.65;7.35;;;22.00;60.40;;;;;;4693658;30;20305;-78
2021/07/21 05:54:41;;;;;;;12.85;7.72;;;22.40;59.00;;;;;;4708027;30;20033;-78
2021/07/21 05:57:09;;;;;;;13.05;7.10;;;22.50;58.70;;;;;;4708536;30;20741;-79
2021/07/21 05:59:44;;;;;;;16.60;7.97;;;22.50;58.60;;;;;;4707959;30;20081;-77
2021/07/21 06:02:10;;;;;;;13.40;7.57;;;22.70;58.10;;;;;;4707096;30;20038;-78
2021/07/21 06:04:36;;;;;;;13.77;7.53;;;22.70;58.00;;;;;;4713803;30;20041;-78
2021/07/21 06:07:22;;;;;;;13.43;6.97;;;22.80;58.20;;;;;;4664042;30;20329;-78
2021/07/21 06:10:07;;;;;;;13.60;6.28;;;22.80;58.40;;;;;;4676134;30;20052;-78
2021/07/21 06:12:44;;;;;;;;;;;22.80;58.70;;;;;;4674259;30;20030;-77
2021/07/21 06:15:10;;;;;;;11.63;7.07;;;22.80;58.40;;;;;;4678726;30;19958;-77
2021/07/21 06:17:37;;;;;;;;;;;22.80;59.20;;;;;;4677585;30;20041;-77
2021/07/21 06:20:07;;;;;;;14.07;7.03;;;22.80;58.30;;;;;;4653501;30;19918;-76
2021/07/21 06:22:39;;;;;;;14.05;7.13;;;22.80;58.40;;;;;;4661649;30;20119;-77
2021/07/21 06:25:16;;;;;;;14.20;7.55;;;22.80;58.60;;;;;;4670125;30;20089;-77
2021/07/21 06:28:05;;;;;;;10.82;6.82;;;22.90;58.20;;;;;;4668470;30;20313;-77
2021/07/21 06:30:34;;;;;;;9.65;7.03;;;22.90;58.90;;;;;;4689261;30;20085;-77
2021/07/21 06:33:02;;;;;;;13.80;7.20;;;23.20;58.70;;;;;;4680202;30;20058;-77
2021/07/21 06:35:28;;;;;;;16.65;7.30;;;23.40;58.10;;;;;;4676781;30;20038;-77
2021/07/21 06:37:56;;;;;;;10.20;6.93;;;23.70;58.00;;;;;;4682249;30;20042;-77
2021/07/21 06:40:25;;;;;;;10.68;6.65;;;23.70;57.10;;;;;;4659499;30;20037;-77
2021/07/21 06:42:51;;;;;;;12.02;7.18;;;23.70;57.70;;;;;;4672927;30;20030;-77
2021/07/21 06:45:17;;;;;;;10.07;6.63;;;23.90;57.00;;;;;;4707635;30;20067;-78
2021/07/21 06:48:03;;;;;;;10.97;6.33;;;24.10;56.90;;;;;;4734913;30;20032;-77
2021/07/21 06:50:35;;;;;;;9.63;6.30;;;24.10;56.30;;;;;;4709097;30;20045;-77
2021/07/21 06:53:01;;;;;;;11.50;5.88;;;24.10;55.70;;;;;;4721225;30;20159;-77
2021/07/21 06:55:45;;;;;;;9.50;5.65;;;24.20;56.20;;;;;;4719912;30;20068;-80
2021/07/21 06:58:13;;;;;;;8.95;5.47;;;24.20;54.00;;;;;;4717933;30;20425;-78
2021/07/21 07:00:47;;;;;;;11.25;5.20;;;24.20;54.70;;;;;;4702209;30;20042;-77
2021/07/21 07:03:31;;;;;;;8.73;5.38;;;24.20;54.00;;;;;;4697445;30;20126;-78
2021/07/21 07:06:16;;;;;;;9.38;5.47;;;24.20;55.00;;;;;;4693518;30;20052;-78
2021/07/21 07:09:00;;;;;;;11.82;4.95;;;24.30;54.80;;;;;;4708444;30;20092;-78
2021/07/21 07:11:45;;;;;;;9.60;4.88;;;24.60;54.10;;;;;;4680641;30;20085;-78
2021/07/21 07:14:10;;;;;;;10.40;5.43;;;24.60;53.60;;;;;;4714410;30;20034;-77
2021/07/21 07:16:36;;;;;;;12.32;5.80;;;24.80;53.20;;;;;;4720111;30;20041;-77
2021/07/21 07:19:02;;;;;;;8.15;5.78;;;24.80;54.20;;;;;;4722403;30;20030;-78
2021/07/21 07:21:29;;;;;;;11.02;5.68;;;24.80;52.70;;;;;;4697413;30;20056;-78
2021/07/21 07:23:57;;;;;;;11.07;6.07;;;24.80;53.60;;;;;;4719302;30;20044;-78
2021/07/21 07:26:24;;;;;;;12.13;5.82;;;24.70;52.90;;;;;;4705756;30;20045;-77
2021/07/21 07:28:53;;;;;;;6.93;5.38;;;24.80;53.10;;;;;;4730586;30;20086;-78
2021/07/21 07:31:19;;;;;;;7.30;4.97;;;24.90;53.50;;;;;;4731053;30;20064;-78
2021/07/21 07:33:45;;;;;;;10.10;5.68;;;24.90;54.00;;;;;;4730900;30;20242;-78
2021/07/21 07:36:10;;;;;;;7.13;5.35;;;25.00;53.60;;;;;;4730658;30;20229;-78
2021/07/21 07:38:36;;;;;;;10.48;5.50;;;25.10;53.50;;;;;;4731205;30;20037;-78
2021/07/21 07:41:02;;;;;;;8.77;5.65;;;25.10;54.10;;;;;;4730301;30;20047;-78
2021/07/21 07:43:28;;;;;;;7.95;5.38;;;25.20;54.50;;;;;;4729871;30;20051;-77
2021/07/21 07:45:57;;;;;;;13.60;6.05;;;25.30;52.70;;;;;;4715555;30;20072;-77
2021/07/21 07:48:24;;;;;;;11.90;5.97;;;25.10;53.30;;;;;;4718858;30;20036;-77
2021/07/21 07:50:50;;;;;;;13.07;5.85;;;25.10;53.60;;;;;;4729712;30;20199;-77
2021/07/21 07:53:16;;;;;;;8.30;5.90;;;25.10;53.90;;;;;;4745009;30;20029;-78
2021/07/21 07:55:43;;;;;;;;;;;25.10;54.50;;;;;;4742453;30;20632;-77
2021/07/21 07:58:09;;;;;;;11.90;5.73;;;25.20;54.40;;;;;;4728841;30;19910;-78
2021/07/21 08:00:35;;;;;;;11.52;5.22;;;25.40;55.10;;;;;;4745426;30;20037;-78
2021/07/21 08:03:02;;;;;;;11.32;6.07;;;25.50;52.90;;;;;;4729531;30;20303;-77
2021/07/21 08:05:28;;;;;;;8.27;4.57;;;25.60;53.40;;;;;;4729389;30;20043;-78
2021/07/21 08:07:54;;;;;;;9.02;6.00;;;25.70;52.70;;;;;;4745495;30;20040;-77
2021/07/21 08:10:19;;;;;;;12.23;6.35;;;25.60;52.80;;;;;;4713421;30;20048;-77
2021/07/21 08:12:46;;;;;;;9.73;5.40;;;25.60;52.80;;;;;;4740027;30;20035;-79
2021/07/21 08:15:13;;;;;;;10.32;5.97;;;25.60;53.00;;;;;;4733198;30;20344;-79
2021/07/21 08:17:40;;;;;;;13.57;5.20;;;25.80;53.20;;;;;;4734071;30;20036;-78
2021/07/21 08:20:07;;;;;;;7.15;5.22;;;25.80;52.70;;;;;;4729063;30;20078;-79
2021/07/21 08:22:39;;;;;;;9.32;5.53;;;26.00;52.40;;;;;;4729414;30;20045;-78
2021/07/21 08:25:17;;;;;;;10.55;5.35;;;26.00;51.00;;;;;;4731855;30;20189;-77
2021/07/21 08:27:52;;;;;;;;;;;26.20;51.20;;;;;;4743066;30;20254;-78
2021/07/21 08:30:18;;;;;;;10.38;5.45;;;26.00;51.30;;;;;;4719545;30;19910;-77
2021/07/21 08:32:48;;;;;;;10.93;4.73;;;26.00;51.10;;;;;;4717689;30;20033;-77
2021/07/21 08:35:18;;;;;;;14.18;5.85;;;25.90;49.10;;;;;;4716748;30;20286;-77
2021/07/21 08:37:44;;;;;;;10.95;5.75;;;26.00;50.00;;;;;;4731147;30;20043;-76
2021/07/21 08:40:11;;;;;;;7.78;4.82;;;26.00;49.60;;;;;;4717387;30;20036;-77
2021/07/21 08:42:37;;;;;;;;;;;26.00;49.70;;;;;;4747761;30;20028;-76
2021/07/21 08:45:04;;;;;;;12.73;5.45;;;26.20;50.60;;;;;;4731800;30;19917;-75
2021/07/21 08:47:30;;;;;;;7.90;4.72;;;26.30;51.20;;;;;;4731217;30;20357;-76
2021/07/21 08:49:56;;;;;;;8.75;4.70;;;26.30;50.80;;;;;;4731146;30;20045;-76
2021/07/21 08:52:22;;;;;;;13.98;5.85;;;26.40;50.30;;;;;;4731796;30;20043;-76
2021/07/21 08:54:49;;;;;;;8.80;5.27;;;26.40;49.10;;;;;;4747192;30;20035;-77
2021/07/21 08:57:16;;;;;;;7.85;4.80;;;26.60;49.30;;;;;;4725935;30;20083;-77
2021/07/21 08:59:43;;;;;;;;;;;26.80;48.50;;;;;;4731661;30;20597;-77
2021/07/21 09:02:14;;;;;;;10.63;4.82;;;26.80;49.60;;;;;;4731523;30;19913;-77
2021/07/21 09:04:41;;;;;;;7.57;4.95;;;26.80;48.60;;;;;;4740976;30;20063;-77
2021/07/21 09:07:07;;;;;;;;;;;26.90;49.40;;;;;;4716746;30;20041;-77
2021/07/21 09:09:33;;;;;;;12.23;5.47;;;27.20;50.70;;;;;;4745399;30;19918;-76
2021/07/21 09:11:59;;;;;;;8.27;5.15;;;27.10;46.90;;;;;;4746820;30;20106;-76
2021/07/21 09:14:26;;;;;;;7.93;5.13;;;27.00;49.70;;;;;;4716730;30;20037;-75
2021/07/21 09:17:15;;;;;;;10.95;5.45;;;27.20;48.00;;;;;;4750455;30;20049;-77
2021/07/21 09:19:48;;;;;;;11.30;5.40;;;27.40;46.70;;;;;;4716327;30;20115;-77
2021/07/21 09:22:18;;;;;;;9.60;5.28;;;27.50;46.10;;;;;;4730890;30;20108;-77
2021/07/21 09:24:45;;;;;;;8.98;4.90;;;27.50;44.90;;;;;;4716438;30;20036;-77
2021/07/21 09:27:11;;;;;;;7.13;4.53;;;27.30;44.70;;;;;;4746276;30;20037;-77
2021/07/21 09:29:39;;;;;;;12.60;5.20;;;27.40;45.10;;;;;;4746648;30;20339;-77
2021/07/21 09:32:06;;;;;;;9.15;5.30;;;27.50;44.60;;;;;;4746352;30;20037;-77
2021/07/21 09:34:34;;;;;;;;;;;27.50;45.40;;;;;;4746778;30;20363;-77
2021/07/21 09:37:04;;;;;;;8.43;4.75;;;27.40;43.70;;;;;;4729773;30;19918;-77
2021/07/21 09:39:35;;;;;;;9.98;5.07;;;27.40;45.00;;;;;;4730833;30;20107;-77
2021/07/21 09:42:01;;;;;;;15.32;6.75;;;27.80;45.10;;;;;;4730678;30;20060;-77
2021/07/21 09:44:39;;;;;;;15.97;5.77;;;28.00;45.60;;;;;;4730399;30;20036;-77
2021/07/21 09:47:09;;;;;;;7.28;4.55;;;28.00;44.40;;;;;;4712940;30;20377;-77
2021/07/21 09:49:35;;;;;;;8.23;4.82;;;28.10;44.00;;;;;;4727491;30;20025;-77
2021/07/21 09:52:21;;;;;;;7.63;4.63;;;27.90;44.60;;;;;;4713207;30;20029;-76
2021/07/21 09:55:03;;;;;;;10.02;4.72;;;27.50;44.80;;;;;;4728928;30;20029;-77
2021/07/21 09:57:29;;;;;;;8.02;5.28;;;27.50;47.20;;;;;;4728489;30;20033;-77
2021/07/21 09:59:57;;;;;;;9.53;4.70;;;27.70;43.40;;;;;;4728242;30;20033;-77
2021/07/21 10:02:25;;;;;;;8.07;5.03;;;27.60;42.80;;;;;;4712868;30;20049;-77
2021/07/21 10:04:52;;;;;;;10.70;4.78;;;27.60;44.00;;;;;;4721425;30;20044;-77
2021/07/21 10:10:15;;;;;;;7.90;5.45;;;27.60;44.90;;;;;;4717179;30;20048;-75
2021/07/21 10:12:41;;;;;;;11.38;4.85;;;28.00;43.20;;;;;;4728141;30;20041;-75
2021/07/21 10:15:08;;;;;;;8.43;5.25;;;28.20;43.40;;;;;;4728148;30;20229;-76
2021/07/21 10:17:34;;;;;;;9.50;5.30;;;28.40;43.60;;;;;;4728242;30;20045;-76
2021/07/21 10:20:00;;;;;;;7.37;4.77;;;28.50;43.40;;;;;;4712441;30;20101;-76
2021/07/21 10:22:26;;;;;;;6.63;4.88;;;28.40;43.70;;;;;;4727182;30;20355;-76
2021/07/21 10:24:53;;;;;;;7.07;5.45;;;28.00;43.30;;;;;;4727566;30;20208;-76
2021/07/21 10:27:19;;;;;;;6.53;4.60;;;27.80;43.70;;;;;;4698068;30;20053;-76
2021/07/21 10:29:46;;;;;;;11.13;5.10;;;27.60;44.60;;;;;;4712274;30;20063;-77
2021/07/21 10:32:14;;;;;;;7.22;5.57;;;27.70;45.00;;;;;;4727194;30;20060;-76
2021/07/21 10:34:43;;;;;;;7.63;4.95;;;27.60;43.60;;;;;;4727056;30;20032;-75
2021/07/21 10:37:10;;;;;;;7.22;5.00;;;27.50;45.10;;;;;;4726802;30;20043;-76
2021/07/21 10:39:37;;;;;;;6.82;4.72;;;27.70;45.80;;;;;;4727026;30;20083;-75
2021/07/21 10:42:13;;;;;;;9.45;5.35;;;28.20;45.00;;;;;;4727886;30;20079;-75
2021/07/21 10:44:39;;;;;;;12.02;5.13;;;28.50;43.60;;;;;;4727721;30;20078;-76
2021/07/21 10:47:31;;;;;;;8.52;5.50;;;28.80;43.50;;;;;;4726409;30;20333;-76
2021/07/21 10:50:03;;;;;;;9.68;5.45;;;29.00;42.50;;;;;;4691244;30;20068;-76
2021/07/21 10:52:43;;;;;;;7.43;4.22;;;28.80;40.80;;;;;;4662680;30;20034;-76
2021/07/21 10:55:27;;;;;;;7.30;4.95;;;28.50;40.40;;;;;;4676749;30;20045;-77
2021/07/21 11:00:54;;;;;;;6.40;4.05;;;28.50;41.90;;;;;;4690899;30;20392;-78
2021/07/21 11:03:28;;;;;;;7.53;5.50;;;28.40;41.20;;;;;;4690832;30;20081;-76
2021/07/21 11:06:02;;;;;;;7.38;4.95;;;28.20;41.30;;;;;;4690872;30;20460;-76
2021/07/21 11:08:29;;;;;;;10.07;4.70;;;27.80;41.40;;;;;;4676094;30;20116;-76
2021/07/21 11:11:10;;;;;;;8.65;4.82;;;27.60;40.80;;;;;;4690927;30;20038;-78
2021/07/21 11:13:40;;;;;;;6.80;5.00;;;27.60;41.20;;;;;;4661962;30;20057;-78
2021/07/21 11:16:41;;;;;;;7.75;4.90;;;27.70;42.80;;;;;;4664918;30;20191;-75
2021/07/21 11:19:34;;;;;;;7.45;4.97;;;28.50;41.60;;;;;;4671556;30;20033;-77
2021/07/21 11:22:04;;;;;;;7.55;4.97;;;28.90;39.20;;;;;;4662264;30;20237;-75
2021/07/21 11:24:30;;;;;;;7.53;4.53;;;28.80;40.20;;;;;;4673649;30;20050;-77
2021/07/21 11:26:57;;;;;;;7.13;5.22;;;28.60;39.40;;;;;;4710088;30;20041;-75
2021/07/21 11:29:42;;;;;;;10.27;5.20;;;28.50;40.70;;;;;;4727344;30;20083;-77
2021/07/21 11:32:12;;;;;;;7.63;4.93;;;28.50;40.50;;;;;;4725800;30;20402;-78
2021/07/21 11:34:41;;;;;;;8.00;4.90;;;28.80;42.60;;;;;;4711984;30;20044;-79
2021/07/21 11:37:28;;;;;;;6.60;4.60;;;29.10;40.10;;;;;;4726838;30;20041;-78
2021/07/21 11:39:56;;;;;;;8.65;4.65;;;29.30;42.00;;;;;;4712213;30;20111;-79
2021/07/21 11:42:40;;;;;;;9.40;5.13;;;29.50;40.50;;;;;;4714246;30;20041;-78
2021/07/21 11:45:06;;;;;;;6.97;4.75;;;29.40;38.90;;;;;;4713992;30;20059;-78
2021/07/21 11:47:37;;;;;;;8.47;5.13;;;29.00;38.30;;;;;;4743952;30;20053;-78
2021/07/21 11:50:25;;;;;;;10.65;5.20;;;28.70;39.00;;;;;;4730667;30;20028;-79
2021/07/21 11:53:03;;;;;;;8.35;5.03;;;28.50;39.50;;;;;;4717770;30;20029;-80
2021/07/21 11:55:30;;;;;;;13.27;5.10;;;28.30;40.60;;;;;;4730043;30;20102;-80
2021/07/21 11:57:57;;;;;;;10.73;5.85;;;28.10;41.50;;;;;;4717966;30;20327;-80
2021/07/21 12:00:25;;;;;;;8.85;4.45;;;28.10;41.70;;;;;;4732597;30;20039;-79
2021/07/21 12:03:01;;;;;;;8.73;5.50;;;28.00;42.00;;;;;;4732178;30;20116;-80
2021/07/21 12:05:28;;;;;;;9.10;5.38;;;28.00;42.40;;;;;;4732889;30;20028;-79
2021/07/21 12:07:58;;;;;;;7.85;4.93;;;28.10;41.40;;;;;;4721704;30;20045;-79
2021/07/21 12:10:24;;;;;;;7.20;4.97;;;28.20;41.90;;;;;;4702260;30;20078;-77
2021/07/21 12:12:54;;;;;;;8.80;5.37;;;28.50;42.80;;;;;;4728322;30;20028;-75
2021/07/21 12:15:20;;;;;;;6.13;4.97;;;28.90;40.50;;;;;;4728140;30;20029;-75
2021/07/21 12:17:45;;;;;;;7.87;5.33;;;29.10;41.80;;;;;;4745156;30;20039;-75
2021/07/21 12:20:14;;;;;;;6.72;4.45;;;29.20;41.10;;;;;;4728215;30;20036;-76
2021/07/21 12:22:45;;;;;;;7.47;4.93;;;28.90;40.70;;;;;;4735625;30;20107;-75
2021/07/21 12:25:17;;;;;;;8.05;5.15;;;28.60;41.90;;;;;;4743912;30;20033;-75
2021/07/21 12:27:44;;;;;;;11.75;5.07;;;28.50;41.40;;;;;;4727663;30;20346;-76
2021/07/21 12:30:14;;;;;;;9.05;4.50;;;28.10;42.80;;;;;;4727819;30;20055;-76
2021/07/21 12:32:41;;;;;;;9.15;5.50;;;27.80;43.20;;;;;;4728176;30;20037;-77
2021/07/21 12:35:08;;;;;;;;;;;27.50;43.30;;;;;;4743732;30;20087;-76
2021/07/21 12:37:41;;;;;;;13.43;5.93;;;27.20;43.90;;;;;;4742793;30;19910;-75
2021/07/21 12:40:28;;;;;;;9.45;5.00;;;27.00;44.00;;;;;;4728059;30;20029;-76
2021/07/21 12:42:56;;;;;;;6.30;4.25;;;27.00;45.30;;;;;;4729225;30;20040;-76
2021/07/21 12:45:27;;;;;;;9.45;5.13;;;27.20;44.10;;;;;;4735042;30;20602;-76
2021/07/21 12:47:56;;;;;;;9.98;5.30;;;27.60;45.70;;;;;;4732237;30;20056;-76
2021/07/21 12:50:36;;;;;;;8.85;5.57;;;28.10;43.80;;;;;;4727623;30;20059;-76
2021/07/21 12:53:19;;;;;;;12.35;5.05;;;28.50;42.20;;;;;;4708313;30;20308;-76
2021/07/21 12:55:49;;;;;;;7.78;4.63;;;28.60;42.10;;;;;;4743307;30;20083;-76
2021/07/21 12:58:22;;;;;;;9.90;5.03;;;28.50;41.70;;;;;;4710521;30;20103;-76
2021/07/21 13:00:53;;;;;;;8.70;5.25;;;28.40;42.10;;;;;;4743759;30;20326;-76
2021/07/21 13:03:21;;;;;;;9.50;4.50;;;28.40;41.40;;;;;;4727971;30;20047;-77
2021/07/21 13:05:47;;;;;;;11.38;5.10;;;28.40;41.90;;;;;;4743550;30;20060;-78
2021/07/21 13:08:20;;;;;;;10.70;5.57;;;28.50;42.30;;;;;;4720673;30;20048;-78
2021/07/21 13:10:47;;;;;;;17.25;5.13;;;28.60;41.30;;;;;;4712242;30;20041;-78
2021/07/21 13:13:21;;;;;;;;;;;28.30;41.80;;;;;;4738803;30;20024;-79
2021/07/21 13:16:04;;;;;;;9.38;4.60;;;28.00;42.20;;;;;;4740464;30;19914;-77
2021/07/21 13:18:31;;;;;;;11.93;4.53;;;27.80;43.50;;;;;;4759053;30;20078;-78
2021/07/21 13:20:57;;;;;;;;;;;27.80;43.10;;;;;;4727651;30;20100;-77
2021/07/21 13:23:25;;;;;;;7.83;4.20;;;27.90;43.10;;;;;;4734006;30;19957;-78
2021/07/21 13:26:13;;;;;;;11.60;5.07;;;28.10;43.70;;;;;;4722351;30;20060;-79
2021/07/21 13:28:54;;;;;;;15.73;4.20;;;28.20;41.50;;;;;;4736611;30;20067;-80
2021/07/21 13:31:21;;;;;;;10.25;4.80;;;28.10;42.70;;;;;;4727615;30;20044;-79
2021/07/21 13:33:47;;;;;;;;;;;28.10;41.90;;;;;;4739342;30;20020;-79
2021/07/21 13:36:15;;;;;;;8.55;5.28;;;28.30;41.40;;;;;;4734906;30;19937;-79
2021/07/21 13:39:00;;;;;;;7.50;4.82;;;28.50;41.80;;;;;;4738572;30;20063;-79
2021/07/21 13:41:27;;;;;;;9.55;4.68;;;28.60;41.60;;;;;;4749026;30;20032;-79
2021/07/21 13:43:58;;;;;;;9.15;4.40;;;28.60;41.00;;;;;;4721844;30;20036;-77
2021/07/21 13:46:25;;;;;;;20.05;5.15;;;28.60;40.20;;;;;;4731015;30;20056;-80
2021/07/21 13:49:10;;;;;;;10.10;4.75;;;28.60;41.70;;;;;;4738483;30;20037;-82
2021/07/21 13:51:44;;;;;;;8.40;4.72;;;28.70;43.00;;;;;;4733776;30;20047;-81
2021/07/21 13:54:19;;;;;;;8.20;4.80;;;29.00;42.10;;;;;;4747153;30;20054;-81
2021/07/21 13:56:52;;;;;;;8.02;4.90;;;29.00;41.20;;;;;;4716196;30;20037;-82
2021/07/21 13:59:18;;;;;;;9.27;4.85;;;28.90;40.50;;;;;;4716683;30;20059;-81
2021/07/21 14:01:45;;;;;;;9.38;4.70;;;28.70;41.90;;;;;;4730312;30;20268;-76
2021/07/21 14:04:11;;;;;;;8.10;4.65;;;28.90;40.90;;;;;;4728179;30;20065;-80
2021/07/21 14:06:39;;;;;;;9.35;4.18;;;29.00;39.30;;;;;;4718274;30;20142;-78
2021/07/21 14:09:06;;;;;;;8.50;4.07;;;29.00;39.80;;;;;;4732183;30;20108;-78
2021/07/21 14:11:33;;;;;;;7.68;3.90;;;28.90;40.90;;;;;;4716588;30;20032;-78
2021/07/21 14:14:00;;;;;;;14.82;4.05;;;28.70;39.70;;;;;;4732646;30;20033;-78
2021/07/21 14:16:26;;;;;;;;;;;28.60;40.50;;;;;;4734256;30;20037;-77
2021/07/21 14:18:52;;;;;;;9.27;4.18;;;28.50;41.50;;;;;;4731378;30;19918;-78
2021/07/21 14:21:18;;;;;;;5.77;3.77;;;28.60;41.60;;;;;;4730432;30;20274;-78
2021/07/21 14:23:44;;;;;;;10.87;5.20;;;28.70;41.50;;;;;;4714927;30;20040;-77
2021/07/21 14:26:11;;;;;;;9.05;3.80;;;28.80;41.50;;;;;;4729376;30;20126;-78
2021/07/21 14:28:37;;;;;;;7.05;3.70;;;28.70;39.40;;;;;;4715559;30;20045;-77
2021/07/21 14:31:03;;;;;;;8.13;3.60;;;28.50;40.60;;;;;;4730383;30;20080;-78
2021/07/21 14:33:29;;;;;;;13.27;3.70;;;28.40;40.80;;;;;;4729996;30;20267;-78
2021/07/21 14:35:56;;;;;;;5.78;4.20;;;28.40;40.20;;;;;;4730282;30;20029;-78
2021/07/21 14:38:22;;;;;;;11.75;4.57;;;28.30;41.60;;;;;;4716347;30;20045;-78
2021/07/21 14:40:48;;;;;;;8.40;4.00;;;28.30;39.30;;;;;;4732425;30;20097;-79
2021/07/21 14:43:14;;;;;;;10.10;4.35;;;28.00;39.50;;;;;;4732611;30;20047;-79
2021/07/21 14:45:40;;;;;;;11.20;4.30;;;27.90;41.10;;;;;;4738821;30;20328;-79
2021/07/21 14:48:06;;;;;;;5.15;3.65;;;27.80;40.10;;;;;;4735768;30;20047;-79
2021/07/21 14:50:32;;;;;;;10.27;3.97;;;27.80;40.90;;;;;;4719747;30;20024;-78
2021/07/21 14:52:58;;;;;;;5.80;4.63;;;27.70;40.00;;;;;;4734931;30;20038;-79
2021/07/21 14:55:26;;;;;;;7.95;4.57;;;27.80;40.20;;;;;;4720374;30;20036;-78
2021/07/21 14:57:52;;;;;;;5.07;3.85;;;27.80;41.00;;;;;;4719207;30;20107;-77
2021/07/21 15:00:18;;;;;;;7.53;4.40;;;27.80;40.50;;;;;;4731997;30;20041;-78
2021/07/21 15:02:44;;;;;;;14.07;4.70;;;27.80;40.60;;;;;;4732919;30;20035;-78
2021/07/21 15:05:11;;;;;;;7.97;4.00;;;27.90;40.20;;;;;;4717159;30;20051;-78
2021/07/21 15:07:37;;;;;;;5.75;3.53;;;27.90;41.00;;;;;;4732593;30;20029;-77
2021/07/21 15:10:05;;;;;;;5.80;3.63;;;27.80;40.40;;;;;;4748358;30;20036;-78
2021/07/21 15:12:31;;;;;;;11.45;4.05;;;27.90;41.40;;;;;;4733621;30;20396;-78
2021/07/21 15:14:57;;;;;;;12.27;3.80;;;27.80;40.10;;;;;;4733351;30;20078;-78
2021/07/21 15:17:24;;;;;;;6.75;3.97;;;27.90;41.60;;;;;;4733300;30;20231;-78
2021/07/21 15:19:50;;;;;;;6.63;3.95;;;27.80;40.20;;;;;;4717869;30;20037;-78
2021/07/21 15:22:17;;;;;;;10.38;3.80;;;27.80;41.10;;;;;;4732713;30;20059;-78
2021/07/21 15:24:43;;;;;;;6.22;4.20;;;27.80;40.60;;;;;;4732807;30;20115;-78
2021/07/21 15:27:14;;;;;;;8.17;3.97;;;27.80;40.70;;;;;;4731206;30;20127;-77
2021/07/21 15:29:41;;;;;;;6.80;4.38;;;27.80;40.60;;;;;;4732857;30;20025;-78
2021/07/21 15:32:07;;;;;;;;;;;27.80;40.30;;;;;;4748745;30;20092;-78
2021/07/21 15:34:33;;;;;;;10.07;4.35;;;27.70;40.00;;;;;;4732406;30;19910;-78
2021/07/21 15:36:59;;;;;;;11.85;4.90;;;27.60;41.00;;;;;;4715814;30;20050;-77
2021/07/21 15:39:25;;;;;;;7.82;4.43;;;27.60;40.80;;;;;;4728416;30;20039;-77
2021/07/21 15:41:54;;;;;;;8.97;4.40;;;27.60;40.40;;;;;;4727977;30;20044;-76
2021/07/21 15:44:20;;;;;;;9.65;4.63;;;27.60;41.40;;;;;;4727312;30;20039;-77
2021/07/21 15:46:46;;;;;;;8.03;3.90;;;27.60;40.60;;;;;;4730030;30;20112;-76
2021/07/21 15:49:13;;;;;;;10.50;4.53;;;27.60;40.00;;;;;;4742044;30;20047;-77
2021/07/21 15:51:39;;;;;;;11.07;4.03;;;27.50;40.70;;;;;;4729510;30;20024;-76
2021/07/21 15:54:06;;;;;;;8.40;4.18;;;27.40;41.50;;;;;;4721602;30;20032;-76
2021/07/21 15:56:32;;;;;;;5.03;4.10;;;27.30;41.00;;;;;;4728039;30;20028;-77